createdAt,value
2018-07-03T00:00:49.895Z,0.00
2018-07-03T00:01:49.906Z,0.00
2018-07-03T00:02:49.869Z,0.00
2018-07-03T00:03:49.865Z,0.00
2018-07-03T00:04:49.852Z,0.00
2018-07-03T00:05:49.844Z,0.00
2018-07-03T00:06:49.833Z,0.00
2018-07-03T00:07:49.817Z,0.00
2018-07-03T00:08:49.810Z,0.00
2018-07-03T00:09:49.796Z,0.00
2018-07-03T00:10:49.783Z,0.00
2018-07-03T00:11:49.780Z,0.00
2018-07-03T00:12:49.768Z,0.00
2018-07-03T00:13:49.755Z,0.00
2018-07-03T00:14:49.749Z,0.00
2018-07-03T00:15:49.728Z,0.00
2018-07-03T00:16:49.729Z,0.00
2018-07-03T00:17:49.749Z,0.00
2018-07-03T00:18:49.704Z,0.00
2018-07-03T00:19:49.690Z,0.00
2018-07-03T00:20:49.677Z,0.00
2018-07-03T00:21:49.668Z,0.00
2018-07-03T00:22:49.654Z,0.00
2018-07-03T00:23:49.653Z,0.00
2018-07-03T00:24:49.637Z,0.00
2018-07-03T00:25:49.627Z,0.00
2018-07-03T00:26:49.619Z,0.00
2018-07-03T00:27:49.601Z,0.00
2018-07-03T00:28:49.594Z,0.00
2018-07-03T00:29:49.582Z,0.00
2018-07-03T00:30:49.570Z,0.00
2018-07-03T00:31:49.565Z,0.00
2018-07-03T00:32:49.553Z,0.00
2018-07-03T00:33:49.551Z,0.00
2018-07-03T00:34:49.525Z,0.00
2018-07-03T00:35:49.544Z,0.00
2018-07-03T00:36:49.510Z,0.00
2018-07-03T00:37:49.498Z,0.00
2018-07-03T00:38:49.492Z,0.00
2018-07-03T00:39:49.476Z,0.00
2018-07-03T00:40:49.478Z,0.00
2018-07-03T00:41:49.453Z,0.00
2018-07-03T00:42:49.439Z,0.00
2018-07-03T00:43:49.437Z,0.00
2018-07-03T00:44:49.423Z,0.00
2018-07-03T00:45:49.412Z,0.00
2018-07-03T00:46:49.403Z,0.00
2018-07-03T00:47:49.385Z,0.00
2018-07-03T00:48:49.395Z,0.00
2018-07-03T00:49:49.368Z,0.00
2018-07-03T00:50:49.360Z,0.00
2018-07-03T00:51:49.343Z,0.00
2018-07-03T00:52:49.336Z,0.00
2018-07-03T00:53:49.358Z,0.00
2018-07-03T00:54:49.309Z,0.00
2018-07-03T00:55:49.305Z,0.00
2018-07-03T00:56:49.321Z,0.00
2018-07-03T00:57:49.282Z,0.00
2018-07-03T00:58:49.274Z,0.00
2018-07-03T00:59:49.258Z,0.00
2018-07-03T01:00:49.247Z,0.00
2018-07-03T01:01:49.239Z,0.00
2018-07-03T01:02:49.222Z,0.00
2018-07-03T01:03:49.231Z,0.00
2018-07-03T01:04:49.208Z,0.00
2018-07-03T01:05:49.193Z,0.00
2018-07-03T01:06:49.180Z,0.00
2018-07-03T01:07:49.179Z,0.00
2018-07-03T01:08:49.162Z,0.00
2018-07-03T01:09:49.180Z,0.00
2018-07-03T01:10:49.143Z,0.00
2018-07-03T01:11:49.125Z,0.00
2018-07-03T01:12:49.117Z,0.00
2018-07-03T01:13:49.107Z,0.00
2018-07-03T01:14:49.094Z,0.00
2018-07-03T01:15:49.097Z,0.00
2018-07-03T01:16:49.077Z,0.00
2018-07-03T01:17:49.065Z,0.00
2018-07-03T01:18:49.056Z,0.00
2018-07-03T01:19:49.039Z,0.00
2018-07-03T01:20:49.033Z,0.00
2018-07-03T01:21:49.022Z,0.00
2018-07-03T01:22:49.020Z,0.00
2018-07-03T01:23:48.996Z,0.00
2018-07-03T01:24:48.987Z,0.00
2018-07-03T01:25:48.977Z,0.00
2018-07-03T01:26:48.963Z,0.00
2018-07-03T01:27:48.957Z,0.00
2018-07-03T01:28:48.941Z,0.00
2018-07-03T01:29:48.932Z,0.00
2018-07-03T01:30:48.941Z,0.00
2018-07-03T01:31:48.913Z,0.00
2018-07-03T01:32:48.905Z,0.00
2018-07-03T01:33:48.894Z,0.00
2018-07-03T01:34:48.880Z,0.00
2018-07-03T01:35:48.889Z,0.00
2018-07-03T01:36:48.854Z,0.00
2018-07-03T01:37:48.870Z,0.00
2018-07-03T01:38:48.840Z,0.00
2018-07-03T01:39:48.838Z,0.00
2018-07-03T01:40:48.851Z,0.00
2018-07-03T01:41:48.801Z,0.00
2018-07-03T01:42:48.793Z,0.00
2018-07-03T01:43:48.801Z,0.00
2018-07-03T01:44:48.824Z,0.00
2018-07-03T01:45:48.777Z,0.00
2018-07-03T01:46:48.783Z,0.00
2018-07-03T01:47:48.741Z,0.00
2018-07-03T01:48:48.752Z,0.00
2018-07-03T01:49:48.716Z,0.00
2018-07-03T01:50:48.706Z,0.00
2018-07-03T01:51:48.699Z,0.00
2018-07-03T01:52:48.689Z,0.00
2018-07-03T01:53:48.671Z,0.00
2018-07-03T01:54:48.662Z,0.00
2018-07-03T01:55:48.654Z,0.00
2018-07-03T01:56:48.648Z,0.00
2018-07-03T01:57:48.638Z,0.00
2018-07-03T01:58:48.622Z,0.00
2018-07-03T01:59:48.610Z,0.00
2018-07-03T02:00:48.599Z,0.00
2018-07-03T02:01:48.588Z,0.00
2018-07-03T02:02:48.585Z,0.00
2018-07-03T02:03:48.569Z,0.00
2018-07-03T02:04:48.563Z,0.00
2018-07-03T02:05:48.548Z,0.00
2018-07-03T02:06:48.554Z,0.00
2018-07-03T02:07:48.523Z,0.00
2018-07-03T02:08:48.509Z,0.00
2018-07-03T02:09:48.506Z,0.00
2018-07-03T02:10:48.493Z,0.00
2018-07-03T02:11:48.494Z,0.00
2018-07-03T02:12:48.467Z,0.00
2018-07-03T02:13:48.457Z,0.00
2018-07-03T02:14:48.447Z,0.00
2018-07-03T02:15:48.439Z,0.00
2018-07-03T02:16:48.444Z,0.00
2018-07-03T02:17:48.427Z,0.00
2018-07-03T02:18:48.412Z,0.00
2018-07-03T02:19:48.397Z,0.00
2018-07-03T02:20:48.383Z,0.00
2018-07-03T02:21:48.396Z,0.00
2018-07-03T02:22:48.363Z,0.00
2018-07-03T02:23:48.362Z,0.00
2018-07-03T02:24:48.342Z,0.00
2018-07-03T02:25:48.331Z,0.00
2018-07-03T02:26:48.335Z,0.00
2018-07-03T02:27:48.312Z,0.00
2018-07-03T02:28:48.299Z,0.00
2018-07-03T02:29:48.288Z,0.00
2018-07-03T02:30:48.280Z,0.00
2018-07-03T02:31:48.295Z,0.00
2018-07-03T02:32:48.255Z,0.00
2018-07-03T02:33:48.257Z,0.00
2018-07-03T02:34:48.231Z,0.00
2018-07-03T02:35:48.228Z,0.00
2018-07-03T02:36:48.214Z,0.00
2018-07-03T02:37:48.208Z,0.00
2018-07-03T02:38:48.194Z,0.00
2018-07-03T02:39:48.178Z,0.00
2018-07-03T02:40:48.174Z,0.00
2018-07-03T02:41:48.163Z,0.00
2018-07-03T02:42:48.186Z,0.00
2018-07-03T02:43:48.134Z,0.00
2018-07-03T02:44:48.126Z,0.00
2018-07-03T02:45:48.130Z,0.00
2018-07-03T02:46:48.122Z,0.00
2018-07-03T02:47:48.103Z,0.00
2018-07-03T02:48:48.086Z,0.00
2018-07-03T02:49:48.073Z,0.00
2018-07-03T02:50:48.066Z,0.00
2018-07-03T02:51:48.048Z,0.00
2018-07-03T02:52:48.062Z,0.00
2018-07-03T02:53:48.035Z,0.00
2018-07-03T02:54:48.017Z,0.00
2018-07-03T02:55:48.012Z,0.00
2018-07-03T02:56:48.000Z,0.00
2018-07-03T02:57:48.020Z,0.00
2018-07-03T02:58:47.974Z,0.00
2018-07-03T02:59:47.969Z,0.00
2018-07-03T03:00:47.957Z,0.00
2018-07-03T03:01:47.993Z,0.00
2018-07-03T03:02:47.993Z,0.00
2018-07-03T03:03:47.972Z,0.00
2018-07-03T03:04:47.914Z,0.00
2018-07-03T03:05:47.951Z,5.62
2018-07-03T03:06:47.889Z,5.62
2018-07-03T03:07:47.885Z,5.62
2018-07-03T03:08:47.875Z,5.62
2018-07-03T03:09:47.861Z,5.62
2018-07-03T03:10:47.853Z,5.62
2018-07-03T03:11:47.854Z,5.62
2018-07-03T03:12:47.830Z,5.62
2018-07-03T03:13:47.844Z,11.25
2018-07-03T03:14:47.809Z,11.25
2018-07-03T03:15:47.793Z,11.25
2018-07-03T03:16:47.784Z,11.25
2018-07-03T03:17:47.779Z,11.25
2018-07-03T03:18:47.779Z,11.25
2018-07-03T03:19:47.756Z,16.88
2018-07-03T03:20:47.749Z,16.88
2018-07-03T03:21:47.738Z,16.88
2018-07-03T03:22:47.725Z,16.88
2018-07-03T03:23:47.732Z,16.88
2018-07-03T03:24:47.704Z,22.50
2018-07-03T03:25:47.689Z,22.50
2018-07-03T03:26:47.693Z,22.50
2018-07-03T03:27:47.669Z,22.50
2018-07-03T03:28:47.656Z,28.12
2018-07-03T03:29:47.652Z,28.12
2018-07-03T03:30:47.631Z,28.12
2018-07-03T03:31:47.630Z,28.12
2018-07-03T03:32:47.616Z,33.75
2018-07-03T03:33:47.602Z,33.75
2018-07-03T03:34:47.613Z,33.75
2018-07-03T03:35:47.579Z,39.38
2018-07-03T03:36:47.567Z,39.38
2018-07-03T03:37:47.556Z,39.38
2018-07-03T03:38:47.545Z,45.00
2018-07-03T03:39:47.604Z,45.00
2018-07-03T03:40:47.557Z,45.00
2018-07-03T03:41:47.516Z,50.62
2018-07-03T03:42:47.509Z,50.62
2018-07-03T03:43:47.492Z,50.62
2018-07-03T03:44:47.486Z,56.25
2018-07-03T03:45:47.474Z,56.25
2018-07-03T03:46:47.467Z,56.25
2018-07-03T03:47:47.447Z,61.88
2018-07-03T03:48:47.447Z,61.88
2018-07-03T03:49:47.431Z,61.88
2018-07-03T03:50:47.416Z,61.88
2018-07-03T03:51:47.412Z,67.50
2018-07-03T03:52:47.401Z,67.50
2018-07-03T03:53:47.443Z,67.50
2018-07-03T03:54:47.381Z,73.12
2018-07-03T03:55:47.384Z,73.12
2018-07-03T03:56:47.353Z,73.12
2018-07-03T03:57:47.346Z,73.12
2018-07-03T03:58:47.330Z,78.75
2018-07-03T03:59:47.357Z,78.75
2018-07-03T04:00:47.333Z,78.75
2018-07-03T04:01:47.314Z,84.38
2018-07-03T04:02:47.290Z,84.38
2018-07-03T04:03:47.284Z,84.38
2018-07-03T04:04:47.280Z,84.38
2018-07-03T04:05:47.260Z,90.00
2018-07-03T04:06:47.251Z,90.00
2018-07-03T04:07:47.234Z,90.00
2018-07-03T04:08:47.235Z,90.00
2018-07-03T04:09:47.232Z,95.62
2018-07-03T04:10:47.203Z,95.62
2018-07-03T04:11:47.197Z,95.62
2018-07-03T04:12:47.182Z,95.62
2018-07-03T04:13:47.174Z,95.62
2018-07-03T04:14:47.196Z,101.25
2018-07-03T04:15:47.146Z,101.25
2018-07-03T04:16:47.138Z,101.25
2018-07-03T04:17:47.130Z,101.25
2018-07-03T04:18:47.121Z,106.88
2018-07-03T04:19:47.104Z,106.88
2018-07-03T04:20:47.097Z,106.88
2018-07-03T04:21:47.084Z,106.88
2018-07-03T04:22:47.074Z,112.50
2018-07-03T04:23:47.067Z,112.50
2018-07-03T04:24:47.054Z,112.50
2018-07-03T04:25:47.046Z,112.50
2018-07-03T04:26:47.035Z,118.12
2018-07-03T04:27:47.018Z,118.12
2018-07-03T04:28:47.029Z,118.12
2018-07-03T04:29:46.999Z,118.12
2018-07-03T04:30:47.018Z,123.75
2018-07-03T04:31:46.982Z,123.75
2018-07-03T04:32:46.969Z,123.75
2018-07-03T04:33:46.958Z,123.75
2018-07-03T04:34:46.943Z,123.75
2018-07-03T04:35:46.939Z,129.38
2018-07-03T04:36:46.927Z,129.38
2018-07-03T04:37:46.915Z,129.38
2018-07-03T04:38:46.908Z,129.38
2018-07-03T04:39:46.896Z,135.00
2018-07-03T04:40:46.880Z,135.00
2018-07-03T04:41:46.872Z,135.00
2018-07-03T04:42:46.856Z,135.00
2018-07-03T04:43:46.851Z,135.00
2018-07-03T04:44:46.841Z,140.62
2018-07-03T04:45:46.828Z,140.62
2018-07-03T04:46:46.862Z,140.62
2018-07-03T04:47:46.851Z,140.62
2018-07-03T04:48:46.798Z,146.25
2018-07-03T04:49:46.843Z,146.25
2018-07-03T04:50:46.776Z,146.25
2018-07-03T04:51:46.780Z,146.25
2018-07-03T04:52:46.750Z,146.25
2018-07-03T04:53:46.740Z,151.88
2018-07-03T04:54:46.727Z,151.88
2018-07-03T04:55:46.722Z,151.88
2018-07-03T04:56:46.736Z,151.88
2018-07-03T04:57:46.698Z,151.88
2018-07-03T04:58:46.691Z,157.50
2018-07-03T04:59:46.673Z,157.50
2018-07-03T05:00:46.664Z,157.50
2018-07-03T05:01:46.654Z,157.50
2018-07-03T05:02:46.647Z,157.50
2018-07-03T05:03:46.637Z,157.50
2018-07-03T05:04:46.622Z,163.12
2018-07-03T05:05:46.610Z,163.12
2018-07-03T05:06:46.596Z,163.12
2018-07-03T05:07:46.596Z,163.12
2018-07-03T05:08:46.579Z,163.12
2018-07-03T05:09:46.568Z,163.12
2018-07-03T05:10:46.561Z,168.75
2018-07-03T05:11:46.546Z,168.75
2018-07-03T05:12:46.540Z,168.75
2018-07-03T05:13:46.524Z,168.75
2018-07-03T05:14:46.519Z,168.75
2018-07-03T05:15:46.506Z,168.75
2018-07-03T05:16:46.494Z,174.38
2018-07-03T05:17:46.501Z,174.38
2018-07-03T05:18:46.473Z,174.38
2018-07-03T05:19:46.460Z,174.38
2018-07-03T05:20:46.462Z,174.38
2018-07-03T05:21:46.441Z,174.38
2018-07-03T05:22:46.470Z,180.00
2018-07-03T05:23:46.423Z,180.00
2018-07-03T05:24:46.407Z,174.38
2018-07-03T05:25:46.399Z,174.38
2018-07-03T05:26:46.382Z,174.38
2018-07-03T05:27:46.383Z,174.38
2018-07-03T05:28:46.368Z,180.00
2018-07-03T05:29:46.355Z,180.00
2018-07-03T05:30:46.348Z,180.00
2018-07-03T05:31:46.393Z,180.00
2018-07-03T05:32:46.322Z,180.00
2018-07-03T05:33:46.338Z,180.00
2018-07-03T05:34:46.296Z,180.00
2018-07-03T05:35:46.293Z,180.00
2018-07-03T05:36:46.280Z,180.00
2018-07-03T05:37:46.266Z,180.00
2018-07-03T05:38:46.256Z,185.62
2018-07-03T05:39:46.252Z,185.62
2018-07-03T05:40:46.237Z,185.62
2018-07-03T05:41:46.226Z,185.62
2018-07-03T05:42:46.216Z,185.62
2018-07-03T05:43:46.201Z,191.25
2018-07-03T05:44:46.191Z,191.25
2018-07-03T05:45:46.180Z,191.25
2018-07-03T05:46:46.167Z,196.88
2018-07-03T05:47:46.165Z,196.88
2018-07-03T05:48:46.167Z,196.88
2018-07-03T05:49:46.138Z,196.88
2018-07-03T05:50:46.128Z,196.88
2018-07-03T05:51:46.118Z,202.50
2018-07-03T05:52:46.108Z,202.50
2018-07-03T05:53:46.119Z,202.50
2018-07-03T05:54:46.085Z,202.50
2018-07-03T05:55:46.069Z,202.50
2018-07-03T05:56:46.060Z,208.12
2018-07-03T05:57:46.050Z,208.12
2018-07-03T05:58:46.043Z,208.12
2018-07-03T05:59:46.039Z,208.12
2018-07-03T06:00:46.019Z,213.75
2018-07-03T06:01:46.008Z,213.75
2018-07-03T06:02:46.004Z,213.75
2018-07-03T06:03:45.986Z,213.75
2018-07-03T06:04:45.976Z,213.75
2018-07-03T06:05:45.962Z,213.75
2018-07-03T06:06:45.953Z,213.75
2018-07-03T06:07:45.946Z,213.75
2018-07-03T06:08:45.932Z,219.38
2018-07-03T06:09:45.922Z,219.38
2018-07-03T06:10:45.907Z,219.38
2018-07-03T06:11:45.903Z,219.38
2018-07-03T06:12:45.890Z,219.38
2018-07-03T06:13:45.879Z,219.38
2018-07-03T06:14:45.901Z,219.38
2018-07-03T06:15:45.861Z,219.38
2018-07-03T06:16:45.848Z,219.38
2018-07-03T06:17:45.833Z,219.38
2018-07-03T06:18:45.820Z,219.38
2018-07-03T06:19:45.857Z,225.00
2018-07-03T06:20:45.809Z,225.00
2018-07-03T06:21:45.834Z,225.00
2018-07-03T06:22:45.794Z,225.00
2018-07-03T06:23:45.767Z,225.00
2018-07-03T06:24:45.764Z,225.00
2018-07-03T06:25:45.752Z,225.00
2018-07-03T06:26:45.742Z,225.00
2018-07-03T06:27:45.729Z,225.00
2018-07-03T06:28:45.744Z,225.00
2018-07-03T06:29:45.703Z,225.00
2018-07-03T06:30:45.702Z,225.00
2018-07-03T06:31:45.687Z,230.62
2018-07-03T06:32:45.673Z,230.62
2018-07-03T06:33:45.664Z,230.62
2018-07-03T06:34:45.655Z,230.62
2018-07-03T06:35:45.722Z,230.62
2018-07-03T06:36:45.646Z,230.62
2018-07-03T06:37:45.627Z,230.62
2018-07-03T06:38:45.710Z,230.62
2018-07-03T06:39:45.614Z,230.62
2018-07-03T06:40:45.610Z,230.62
2018-07-03T06:41:45.578Z,230.62
2018-07-03T06:42:45.567Z,230.62
2018-07-03T06:43:45.568Z,230.62
2018-07-03T06:44:45.554Z,230.62
2018-07-03T06:45:45.528Z,230.62
2018-07-03T06:46:45.528Z,230.62
2018-07-03T06:47:45.512Z,230.62
2018-07-03T06:48:45.508Z,230.62
2018-07-03T06:49:45.492Z,230.62
2018-07-03T06:50:45.479Z,236.25
2018-07-03T06:51:45.495Z,236.25
2018-07-03T06:52:45.472Z,236.25
2018-07-03T06:53:45.495Z,236.25
2018-07-03T06:54:45.433Z,236.25
2018-07-03T06:55:45.430Z,236.25
2018-07-03T06:56:45.447Z,236.25
2018-07-03T06:57:45.403Z,236.25
2018-07-03T06:58:45.392Z,236.25
2018-07-03T06:59:45.388Z,236.25
2018-07-03T07:00:45.373Z,236.25
2018-07-03T07:01:45.364Z,236.25
2018-07-03T07:02:45.353Z,236.25
2018-07-03T07:03:45.351Z,236.25
2018-07-03T07:04:45.325Z,236.25
2018-07-03T07:05:45.335Z,236.25
2018-07-03T07:06:45.376Z,241.88
2018-07-03T07:07:45.338Z,241.88
2018-07-03T07:08:45.342Z,241.88
2018-07-03T07:09:45.281Z,241.88
2018-07-03T07:10:45.265Z,241.88
2018-07-03T07:11:45.254Z,241.88
2018-07-03T07:12:45.268Z,241.88
2018-07-03T07:13:45.236Z,241.88
2018-07-03T07:14:45.222Z,241.88
2018-07-03T07:15:45.209Z,236.25
2018-07-03T07:16:45.206Z,236.25
2018-07-03T07:17:45.183Z,236.25
2018-07-03T07:18:45.184Z,236.25
2018-07-03T07:19:45.167Z,241.88
2018-07-03T07:20:45.159Z,241.88
2018-07-03T07:21:45.147Z,241.88
2018-07-03T07:22:45.160Z,241.88
2018-07-03T07:23:45.126Z,241.88
2018-07-03T07:24:45.109Z,241.88
2018-07-03T07:25:45.097Z,241.88
2018-07-03T07:26:45.090Z,241.88
2018-07-03T07:27:45.107Z,241.88
2018-07-03T07:28:45.072Z,247.50
2018-07-03T07:29:45.055Z,247.50
2018-07-03T07:30:45.046Z,247.50
2018-07-03T07:31:45.041Z,247.50
2018-07-03T07:32:45.077Z,247.50
2018-07-03T07:33:45.020Z,247.50
2018-07-03T07:34:45.014Z,247.50
2018-07-03T07:35:44.989Z,247.50
2018-07-03T07:36:44.978Z,253.12
2018-07-03T07:37:44.965Z,253.12
2018-07-03T07:38:44.964Z,253.12
2018-07-03T07:39:44.954Z,253.12
2018-07-03T07:40:44.939Z,253.12
2018-07-03T07:41:44.960Z,253.12
2018-07-03T07:42:45.691Z,258.75
2018-07-03T07:43:44.923Z,258.75
2018-07-03T07:44:44.893Z,258.75
2018-07-03T07:45:44.901Z,258.75
2018-07-03T07:46:44.903Z,258.75
2018-07-03T07:47:44.859Z,258.75
2018-07-03T07:48:44.876Z,258.75
2018-07-03T07:49:44.843Z,264.38
2018-07-03T07:50:44.828Z,264.38
2018-07-03T07:51:44.830Z,264.38
2018-07-03T07:52:44.822Z,264.38
2018-07-03T07:53:44.804Z,264.38
2018-07-03T07:54:44.810Z,264.38
2018-07-03T07:55:44.825Z,264.38
2018-07-03T07:56:44.761Z,264.38
2018-07-03T07:57:44.750Z,270.00
2018-07-03T07:58:44.747Z,270.00
2018-07-03T07:59:44.734Z,270.00
2018-07-03T08:00:44.727Z,270.00
2018-07-03T08:01:44.710Z,270.00
2018-07-03T08:02:44.700Z,270.00
2018-07-03T08:03:44.689Z,270.00
2018-07-03T08:04:44.683Z,270.00
2018-07-03T08:05:44.671Z,270.00
2018-07-03T08:06:44.716Z,270.00
2018-07-03T08:07:44.647Z,270.00
2018-07-03T08:08:44.631Z,281.25
2018-07-03T08:09:44.623Z,275.62
2018-07-03T08:10:44.615Z,275.62
2018-07-03T08:11:44.606Z,281.25
2018-07-03T08:12:44.616Z,286.88
2018-07-03T08:13:44.595Z,348.75
2018-07-03T08:14:44.602Z,821.25
2018-07-03T08:15:44.569Z,1170.00
2018-07-03T08:16:44.549Z,1518.75
2018-07-03T08:17:44.542Z,2182.50
2018-07-03T08:18:44.528Z,2767.50
2018-07-03T08:19:44.540Z,2086.88
2018-07-03T08:20:44.502Z,2767.50
2018-07-03T08:21:44.491Z,3183.75
2018-07-03T08:22:44.483Z,3318.75
2018-07-03T08:23:44.477Z,3358.12
2018-07-03T08:24:44.492Z,3420.00
2018-07-03T08:25:44.456Z,3425.62
2018-07-03T08:26:44.448Z,3448.12
2018-07-03T08:27:44.431Z,3459.38
2018-07-03T08:28:44.419Z,3223.12
2018-07-03T08:29:44.408Z,2435.62
2018-07-03T08:30:44.400Z,1918.12
2018-07-03T08:31:44.391Z,1884.38
2018-07-03T08:32:44.383Z,2109.38
2018-07-03T08:33:44.379Z,2773.12
2018-07-03T08:34:44.358Z,3256.88
2018-07-03T08:35:44.392Z,3273.75
2018-07-03T08:36:44.340Z,3290.62
2018-07-03T08:37:44.387Z,3341.25
2018-07-03T08:38:44.340Z,3335.62
2018-07-03T08:39:44.308Z,3234.38
2018-07-03T08:40:44.297Z,3048.75
2018-07-03T08:41:44.310Z,2356.88
2018-07-03T08:42:44.370Z,1305.00
2018-07-03T08:43:44.269Z,495.00
2018-07-03T08:44:44.261Z,416.25
2018-07-03T08:45:44.253Z,393.75
2018-07-03T08:46:44.240Z,382.50
2018-07-03T08:47:44.231Z,376.88
2018-07-03T08:48:44.215Z,371.25
2018-07-03T08:49:44.215Z,371.25
2018-07-03T08:50:44.232Z,365.62
2018-07-03T08:51:44.270Z,365.62
2018-07-03T08:52:44.177Z,365.62
2018-07-03T08:53:44.169Z,371.25
2018-07-03T08:54:44.159Z,371.25
2018-07-03T08:55:44.153Z,371.25
2018-07-03T08:56:44.147Z,371.25
2018-07-03T08:57:44.135Z,371.25
2018-07-03T08:58:44.136Z,376.88
2018-07-03T08:59:44.112Z,376.88
2018-07-03T09:00:44.141Z,376.88
2018-07-03T09:01:44.095Z,382.50
2018-07-03T09:02:44.084Z,382.50
2018-07-03T09:03:44.117Z,388.12
2018-07-03T09:04:44.089Z,388.12
2018-07-03T09:05:44.062Z,393.75
2018-07-03T09:06:44.072Z,399.38
2018-07-03T09:07:44.042Z,405.00
2018-07-03T09:08:44.031Z,421.88
2018-07-03T09:09:44.021Z,450.00
2018-07-03T09:10:44.009Z,517.50
2018-07-03T09:11:44.004Z,877.50
2018-07-03T09:12:43.987Z,2148.75
2018-07-03T09:13:43.979Z,3234.38
2018-07-03T09:14:43.969Z,3223.12
2018-07-03T09:15:43.962Z,3273.75
2018-07-03T09:16:43.955Z,3600.00
2018-07-03T09:17:43.963Z,3605.62
2018-07-03T09:18:43.967Z,3600.00
2018-07-03T09:19:43.922Z,3611.25
2018-07-03T09:20:43.913Z,3510.00
2018-07-03T09:21:43.907Z,3521.25
2018-07-03T09:22:43.899Z,3729.38
2018-07-03T09:23:43.931Z,3825.00
2018-07-03T09:24:43.872Z,3909.38
2018-07-03T09:25:43.867Z,3650.62
2018-07-03T09:26:43.865Z,3330.00
2018-07-03T09:27:43.864Z,3504.38
2018-07-03T09:28:43.843Z,3690.00
2018-07-03T09:29:43.835Z,3560.62
2018-07-03T09:30:43.902Z,3555.00
2018-07-03T09:31:43.850Z,3729.38
2018-07-03T09:32:43.807Z,3926.25
2018-07-03T09:33:43.816Z,4055.62
2018-07-03T09:34:43.815Z,4050.00
2018-07-03T09:35:43.778Z,3993.75
2018-07-03T09:36:43.827Z,3898.12
2018-07-03T09:37:43.837Z,3526.88
2018-07-03T09:38:43.753Z,3015.00
2018-07-03T09:39:43.751Z,2435.62
2018-07-03T09:40:43.746Z,1029.38
2018-07-03T09:41:43.786Z,630.00
2018-07-03T09:42:43.726Z,630.00
2018-07-03T09:43:43.705Z,652.50
2018-07-03T09:44:43.694Z,416.25
2018-07-03T09:45:43.689Z,365.62
2018-07-03T09:46:43.702Z,354.38
2018-07-03T09:47:43.668Z,348.75
2018-07-03T09:48:43.684Z,354.38
2018-07-03T09:49:43.662Z,348.75
2018-07-03T09:50:43.663Z,348.75
2018-07-03T09:51:43.630Z,343.12
2018-07-03T09:52:43.626Z,337.50
2018-07-03T09:53:43.611Z,337.50
2018-07-03T09:54:43.620Z,337.50
2018-07-03T09:55:43.586Z,337.50
2018-07-03T09:56:43.575Z,337.50
2018-07-03T09:57:43.581Z,337.50
2018-07-03T09:58:43.556Z,337.50
2018-07-03T09:59:43.548Z,343.12
2018-07-03T10:00:43.540Z,343.12
2018-07-03T10:01:43.530Z,343.12
2018-07-03T10:02:43.518Z,343.12
2018-07-03T10:03:43.512Z,343.12
2018-07-03T10:04:43.491Z,343.12
2018-07-03T10:05:43.482Z,343.12
2018-07-03T10:06:43.475Z,343.12
2018-07-03T10:07:43.473Z,343.12
2018-07-03T10:08:43.474Z,348.75
2018-07-03T10:09:43.442Z,343.12
2018-07-03T10:10:43.432Z,343.12
2018-07-03T10:11:43.429Z,343.12
2018-07-03T10:12:43.446Z,348.75
2018-07-03T10:13:43.407Z,348.75
2018-07-03T10:14:43.397Z,348.75
2018-07-03T10:15:43.379Z,348.75
2018-07-03T10:16:43.366Z,348.75
2018-07-03T10:17:43.384Z,348.75
2018-07-03T10:18:43.352Z,348.75
2018-07-03T10:19:43.340Z,354.38
2018-07-03T10:20:43.347Z,354.38
2018-07-03T10:21:43.324Z,354.38
2018-07-03T10:22:43.322Z,360.00
2018-07-03T10:23:43.325Z,360.00
2018-07-03T10:24:43.281Z,360.00
2018-07-03T10:25:43.280Z,365.62
2018-07-03T10:26:43.272Z,365.62
2018-07-03T10:27:43.253Z,365.62
2018-07-03T10:28:43.249Z,365.62
2018-07-03T10:29:44.176Z,371.25
2018-07-03T10:30:43.222Z,371.25
2018-07-03T10:31:43.213Z,388.12
2018-07-03T10:32:43.205Z,455.62
2018-07-03T10:33:43.214Z,967.50
2018-07-03T10:34:43.181Z,2334.38
2018-07-03T10:35:43.169Z,4218.75
2018-07-03T10:36:43.157Z,4213.12
2018-07-03T10:37:43.147Z,4134.38
2018-07-03T10:38:43.144Z,4083.75
2018-07-03T10:39:43.137Z,3937.50
2018-07-03T10:40:43.125Z,3757.50
2018-07-03T10:41:43.107Z,3780.00
2018-07-03T10:42:43.100Z,3667.50
2018-07-03T10:43:43.094Z,2722.50
2018-07-03T10:44:43.101Z,540.00
2018-07-03T10:45:43.078Z,489.38
2018-07-03T10:46:43.064Z,399.38
2018-07-03T10:47:43.054Z,388.12
2018-07-03T10:48:43.047Z,382.50
2018-07-03T10:49:43.041Z,382.50
2018-07-03T10:50:43.021Z,388.12
2018-07-03T10:51:43.215Z,382.50
2018-07-03T10:52:43.011Z,382.50
2018-07-03T10:53:42.994Z,388.12
2018-07-03T10:54:42.988Z,388.12
2018-07-03T10:55:42.969Z,388.12
2018-07-03T10:56:42.963Z,393.75
2018-07-03T10:57:42.953Z,393.75
2018-07-03T10:58:42.951Z,393.75
2018-07-03T10:59:42.957Z,393.75
2018-07-03T11:00:42.920Z,393.75
2018-07-03T11:01:42.909Z,393.75
2018-07-03T11:02:42.900Z,399.38
2018-07-03T11:03:42.891Z,399.38
2018-07-03T11:04:42.880Z,405.00
2018-07-03T11:05:42.906Z,405.00
2018-07-03T11:06:42.862Z,410.62
2018-07-03T11:07:42.847Z,416.25
2018-07-03T11:08:42.851Z,455.62
2018-07-03T11:09:42.827Z,568.12
2018-07-03T11:10:42.834Z,838.12
2018-07-03T11:11:42.835Z,2497.50
2018-07-03T11:12:42.799Z,3015.00
2018-07-03T11:13:42.810Z,3673.12
2018-07-03T11:14:42.774Z,3909.38
2018-07-03T11:15:42.801Z,3965.62
2018-07-03T11:16:42.760Z,4021.88
2018-07-03T11:17:42.812Z,4016.25
2018-07-03T11:18:42.793Z,3864.38
2018-07-03T11:19:42.840Z,4106.25
2018-07-03T11:20:42.720Z,4404.38
2018-07-03T11:21:42.714Z,4438.12
2018-07-03T11:22:42.705Z,4443.75
2018-07-03T11:23:42.720Z,4410.00
2018-07-03T11:24:42.689Z,4466.25
2018-07-03T11:25:42.750Z,4415.62
2018-07-03T11:26:42.678Z,4263.75
2018-07-03T11:27:42.697Z,4156.88
2018-07-03T11:28:42.663Z,4258.12
2018-07-03T11:29:42.648Z,4426.88
2018-07-03T11:30:42.664Z,4359.38
2018-07-03T11:31:42.631Z,4218.75
2018-07-03T11:32:42.630Z,4179.38
2018-07-03T11:33:42.624Z,4207.50
2018-07-03T11:34:42.611Z,4320.00
2018-07-03T11:35:42.600Z,4471.88
2018-07-03T11:36:42.644Z,4533.75
2018-07-03T11:37:42.660Z,4522.50
2018-07-03T11:38:42.584Z,4533.75
2018-07-03T11:39:42.562Z,4578.75
2018-07-03T11:40:42.565Z,4556.25
2018-07-03T11:41:42.570Z,4730.62
2018-07-03T11:42:42.691Z,4770.00
2018-07-03T11:43:42.541Z,4635.00
2018-07-03T11:44:42.536Z,4764.38
2018-07-03T11:45:42.530Z,4550.62
2018-07-03T11:46:42.515Z,4173.75
2018-07-03T11:47:42.520Z,4207.50
2018-07-03T11:48:42.503Z,4455.00
2018-07-03T11:49:42.497Z,4550.62
2018-07-03T11:50:42.527Z,4573.12
2018-07-03T11:51:42.674Z,4584.38
2018-07-03T11:52:42.492Z,4404.38
2018-07-03T11:53:42.664Z,4201.88
2018-07-03T11:54:42.540Z,4421.25
2018-07-03T11:55:42.685Z,4528.12
2018-07-03T11:56:42.668Z,4359.38
2018-07-03T11:57:42.501Z,4359.38
2018-07-03T11:58:42.632Z,4443.75
2018-07-03T11:59:42.439Z,4342.50
2018-07-03T12:00:42.416Z,4314.38
2018-07-03T12:01:42.517Z,4320.00
2018-07-03T12:02:42.406Z,4303.12
2018-07-03T12:03:42.390Z,4213.12
2018-07-03T12:04:42.428Z,4185.00
2018-07-03T12:05:42.382Z,4275.00
2018-07-03T12:06:42.398Z,4466.25
2018-07-03T12:07:42.371Z,4511.25
2018-07-03T12:08:42.362Z,4522.50
2018-07-03T12:09:42.376Z,4505.62
2018-07-03T12:10:42.350Z,4381.88
2018-07-03T12:11:42.338Z,4089.38
2018-07-03T12:12:42.336Z,4044.38
2018-07-03T12:13:42.327Z,4280.62
2018-07-03T12:14:42.319Z,4331.25
2018-07-03T12:15:42.330Z,4342.50
2018-07-03T12:16:42.310Z,4421.25
2018-07-03T12:17:42.306Z,4314.38
2018-07-03T12:18:42.294Z,4325.62
2018-07-03T12:19:42.317Z,4415.62
2018-07-03T12:20:42.284Z,4359.38
2018-07-03T12:21:42.303Z,4325.62
2018-07-03T12:22:42.301Z,4387.50
2018-07-03T12:23:42.264Z,4398.75
2018-07-03T12:24:42.255Z,4376.25
2018-07-03T12:25:42.250Z,4438.12
2018-07-03T12:26:42.251Z,4314.38
2018-07-03T12:27:42.267Z,4050.00
2018-07-03T12:28:42.234Z,4005.00
2018-07-03T12:29:42.227Z,4168.12
2018-07-03T12:30:42.222Z,4252.50
2018-07-03T12:31:42.207Z,4083.75
2018-07-03T12:32:42.202Z,3858.75
2018-07-03T12:33:42.262Z,3898.12
2018-07-03T12:34:42.194Z,4106.25
2018-07-03T12:35:42.189Z,4140.00
2018-07-03T12:36:42.193Z,3976.88
2018-07-03T12:37:42.173Z,4134.38